sensor_id;sensor_type;location;lat;lon;timestamp;temperature;humidity
2993;DHT22;1506;48.932;9.478;2023-09-19T00:00:44;18.20;1.00
2993;DHT22;1506;48.932;9.478;2023-09-19T00:03:14;18.20;1.00
2993;DHT22;1506;48.932;9.478;2023-09-19T00:05:41;18.30;1.00
2993;DHT22;1506;48.932;9.478;2023-09-19T00:08:12;18.30;1.00
2993;DHT22;1506;48.932;9.478;2023-09-19T00:10:43;18.30;1.00
2993;DHT22;1506;48.932;9.478;2023-09-19T00:13:10;18.30;1.00
2993;DHT22;1506;48.932;9.478;2023-09-19T00:15:46;18.30;1.00
2993;DHT22;1506;48.932;9.478;2023-09-19T00:18:19;18.20;1.00
2993;DHT22;1506;48.932;9.478;2023-09-19T00:20:51;18.10;9.80
2993;DHT22;1506;48.932;9.478;2023-09-19T00:23:19;18.10;36.70
2993;DHT22;1506;48.932;9.478;2023-09-19T00:25:47;17.90;41.00
2993;DHT22;1506;48.932;9.478;2023-09-19T00:28:15;17.70;89.30
2993;DHT22;1506;48.932;9.478;2023-09-19T00:30:42;17.50;99.90
2993;DHT22;1506;48.932;9.478;2023-09-19T00:33:11;17.40;99.90
2993;DHT22;1506;48.932;9.478;2023-09-19T00:35:46;17.30;99.90
2993;DHT22;1506;48.932;9.478;2023-09-19T00:38:17;17.30;99.90
2993;DHT22;1506;48.932;9.478;2023-09-19T00:40:47;17.20;99.90
2993;DHT22;1506;48.932;9.478;2023-09-19T00:43:14;17.20;99.90
2993;DHT22;1506;48.932;9.478;2023-09-19T00:45:45;17.10;99.90
2993;DHT22;1506;48.932;9.478;2023-09-19T00:48:18;17.10;99.90
2993;DHT22;1506;48.932;9.478;2023-09-19T00:50:47;17.10;99.90
2993;DHT22;1506;48.932;9.478;2023-09-19T00:53:20;17.10;99.90
2993;DHT22;1506;48.932;9.478;2023-09-19T00:55:49;17.10;99.90
2993;DHT22;1506;48.932;9.478;2023-09-19T00:58:18;17.00;99.90
2993;DHT22;1506;48.932;9.478;2023-09-19T01:00:46;17.10;99.90
2993;DHT22;1506;48.932;9.478;2023-09-19T01:03:14;17.10;99.90
2993;DHT22;1506;48.932;9.478;2023-09-19T01:05:41;17.20;99.90
2993;DHT22;1506;48.932;9.478;2023-09-19T01:08:09;17.00;99.90
2993;DHT22;1506;48.932;9.478;2023-09-19T01:10:44;17.20;99.90
2993;DHT22;1506;48.932;9.478;2023-09-19T01:13:27;17.30;99.90
2993;DHT22;1506;48.932;9.478;2023-09-19T01:16:00;17.30;99.90
2993;DHT22;1506;48.932;9.478;2023-09-19T01:29:49;17.10;99.90
2993;DHT22;1506;48.932;9.478;2023-09-19T01:32:17;17.20;99.90
2993;DHT22;1506;48.932;9.478;2023-09-19T01:34:52;17.00;99.90
2993;DHT22;1506;48.932;9.478;2023-09-19T01:37:23;17.10;99.90
2993;DHT22;1506;48.932;9.478;2023-09-19T01:39:58;17.20;99.90
2993;DHT22;1506;48.932;9.478;2023-09-19T01:47:37;17.30;99.90
2993;DHT22;1506;48.932;9.478;2023-09-19T01:50:35;17.30;99.90
2993;DHT22;1506;48.932;9.478;2023-09-19T01:53:10;17.30;99.90
2993;DHT22;1506;48.932;9.478;2023-09-19T01:55:43;17.20;99.90
2993;DHT22;1506;48.932;9.478;2023-09-19T01:58:17;17.20;99.90
2993;DHT22;1506;48.932;9.478;2023-09-19T02:01:06;17.20;99.90
2993;DHT22;1506;48.932;9.478;2023-09-19T02:03:36;17.20;99.90
2993;DHT22;1506;48.932;9.478;2023-09-19T02:06:05;17.20;99.90
2993;DHT22;1506;48.932;9.478;2023-09-19T02:08:38;17.20;99.90
2993;DHT22;1506;48.932;9.478;2023-09-19T02:11:06;17.20;99.90
2993;DHT22;1506;48.932;9.478;2023-09-19T02:13:33;17.20;99.90
2993;DHT22;1506;48.932;9.478;2023-09-19T02:16:00;17.30;99.90
2993;DHT22;1506;48.932;9.478;2023-09-19T02:18:27;17.30;99.90
2993;DHT22;1506;48.932;9.478;2023-09-19T02:20:55;17.30;99.90
2993;DHT22;1506;48.932;9.478;2023-09-19T02:23:22;17.30;99.90
2993;DHT22;1506;48.932;9.478;2023-09-19T02:25:56;17.40;99.90
2993;DHT22;1506;48.932;9.478;2023-09-19T02:28:27;17.40;99.90
2993;DHT22;1506;48.932;9.478;2023-09-19T02:30:59;17.40;99.90
2993;DHT22;1506;48.932;9.478;2023-09-19T02:33:26;17.30;99.90
2993;DHT22;1506;48.932;9.478;2023-09-19T02:35:54;17.20;99.90
2993;DHT22;1506;48.932;9.478;2023-09-19T02:38:25;17.30;99.90
2993;DHT22;1506;48.932;9.478;2023-09-19T02:40:52;17.30;99.90
2993;DHT22;1506;48.932;9.478;2023-09-19T02:43:22;17.20;99.90
2993;DHT22;1506;48.932;9.478;2023-09-19T02:45:49;17.20;99.90
2993;DHT22;1506;48.932;9.478;2023-09-19T02:48:17;17.20;99.90
2993;DHT22;1506;48.932;9.478;2023-09-19T02:50:54;17.20;99.90
2993;DHT22;1506;48.932;9.478;2023-09-19T02:53:21;17.20;99.90
2993;DHT22;1506;48.932;9.478;2023-09-19T02:55:49;17.10;99.90
2993;DHT22;1506;48.932;9.478;2023-09-19T02:58:16;17.10;99.90
2993;DHT22;1506;48.932;9.478;2023-09-19T03:00:45;17.00;99.90
2993;DHT22;1506;48.932;9.478;2023-09-19T03:03:16;17.00;99.90
2993;DHT22;1506;48.932;9.478;2023-09-19T03:05:44;16.90;99.90
2993;DHT22;1506;48.932;9.478;2023-09-19T03:08:16;16.90;99.90
2993;DHT22;1506;48.932;9.478;2023-09-19T03:10:46;16.80;99.90
2993;DHT22;1506;48.932;9.478;2023-09-19T03:13:14;16.80;99.90
2993;DHT22;1506;48.932;9.478;2023-09-19T03:15:42;16.80;99.90
2993;DHT22;1506;48.932;9.478;2023-09-19T03:18:21;16.90;99.90
2993;DHT22;1506;48.932;9.478;2023-09-19T03:20:53;16.90;99.90
2993;DHT22;1506;48.932;9.478;2023-09-19T03:23:23;16.80;99.90
2993;DHT22;1506;48.932;9.478;2023-09-19T03:25:50;16.90;99.90
2993;DHT22;1506;48.932;9.478;2023-09-19T03:28:19;16.90;99.90
2993;DHT22;1506;48.932;9.478;2023-09-19T03:31:03;17.00;99.90
2993;DHT22;1506;48.932;9.478;2023-09-19T03:33:34;17.00;99.90
2993;DHT22;1506;48.932;9.478;2023-09-19T03:36:02;17.00;99.90
2993;DHT22;1506;48.932;9.478;2023-09-19T03:38:32;17.00;99.90
2993;DHT22;1506;48.932;9.478;2023-09-19T03:41:01;17.10;99.90
2993;DHT22;1506;48.932;9.478;2023-09-19T03:43:29;17.10;99.90
2993;DHT22;1506;48.932;9.478;2023-09-19T03:45:56;17.10;99.90
2993;DHT22;1506;48.932;9.478;2023-09-19T03:48:23;17.10;99.40
2993;DHT22;1506;48.932;9.478;2023-09-19T03:50:51;17.10;99.90
2993;DHT22;1506;48.932;9.478;2023-09-19T03:53:19;17.10;95.10
2993;DHT22;1506;48.932;9.478;2023-09-19T03:55:46;17.20;99.90
2993;DHT22;1506;48.932;9.478;2023-09-19T03:58:13;17.20;96.50
2993;DHT22;1506;48.932;9.478;2023-09-19T04:00:40;17.10;95.70
2993;DHT22;1506;48.932;9.478;2023-09-19T04:03:07;17.20;95.50
2993;DHT22;1506;48.932;9.478;2023-09-19T04:05:35;17.20;94.60
2993;DHT22;1506;48.932;9.478;2023-09-19T04:08:02;17.20;90.90
2993;DHT22;1506;48.932;9.478;2023-09-19T04:10:29;17.20;99.20
2993;DHT22;1506;48.932;9.478;2023-09-19T04:12:56;17.20;99.90
2993;DHT22;1506;48.932;9.478;2023-09-19T04:15:23;17.10;97.20
2993;DHT22;1506;48.932;9.478;2023-09-19T04:17:53;17.20;99.90
2993;DHT22;1506;48.932;9.478;2023-09-19T04:20:20;17.10;99.90
2993;DHT22;1506;48.932;9.478;2023-09-19T04:22:49;17.10;99.90
2993;DHT22;1506;48.932;9.478;2023-09-19T04:25:16;17.10;99.90
2993;DHT22;1506;48.932;9.478;2023-09-19T04:27:45;17.10;99.90
2993;DHT22;1506;48.932;9.478;2023-09-19T04:30:13;17.10;99.90
2993;DHT22;1506;48.932;9.478;2023-09-19T04:32:41;17.10;99.90
2993;DHT22;1506;48.932;9.478;2023-09-19T04:35:08;17.10;99.90
2993;DHT22;1506;48.932;9.478;2023-09-19T04:37:40;17.10;99.90
2993;DHT22;1506;48.932;9.478;2023-09-19T04:40:08;17.10;99.90
2993;DHT22;1506;48.932;9.478;2023-09-19T04:42:40;17.10;99.90
2993;DHT22;1506;48.932;9.478;2023-09-19T04:45:07;17.10;99.90
2993;DHT22;1506;48.932;9.478;2023-09-19T04:47:36;17.10;99.90
2993;DHT22;1506;48.932;9.478;2023-09-19T04:50:06;17.00;99.90
2993;DHT22;1506;48.932;9.478;2023-09-19T04:52:34;17.00;99.90
2993;DHT22;1506;48.932;9.478;2023-09-19T04:55:01;17.00;99.90
2993;DHT22;1506;48.932;9.478;2023-09-19T04:57:29;17.00;99.90
2993;DHT22;1506;48.932;9.478;2023-09-19T04:59:56;17.00;99.90
2993;DHT22;1506;48.932;9.478;2023-09-19T05:02:23;17.10;99.90
2993;DHT22;1506;48.932;9.478;2023-09-19T05:04:50;17.10;99.90
2993;DHT22;1506;48.932;9.478;2023-09-19T05:07:17;17.10;99.90
2993;DHT22;1506;48.932;9.478;2023-09-19T05:09:44;17.10;99.90
2993;DHT22;1506;48.932;9.478;2023-09-19T05:12:11;17.10;99.90
2993;DHT22;1506;48.932;9.478;2023-09-19T05:14:38;17.10;99.90
2993;DHT22;1506;48.932;9.478;2023-09-19T05:17:07;17.10;99.90
2993;DHT22;1506;48.932;9.478;2023-09-19T05:19:34;17.10;99.90
2993;DHT22;1506;48.932;9.478;2023-09-19T05:22:01;17.10;99.90
2993;DHT22;1506;48.932;9.478;2023-09-19T05:24:30;17.10;99.90
2993;DHT22;1506;48.932;9.478;2023-09-19T05:26:57;16.90;99.90
2993;DHT22;1506;48.932;9.478;2023-09-19T05:29:24;16.80;99.90
2993;DHT22;1506;48.932;9.478;2023-09-19T05:31:51;16.60;99.90
2993;DHT22;1506;48.932;9.478;2023-09-19T05:34:21;16.50;99.90
2993;DHT22;1506;48.932;9.478;2023-09-19T05:36:48;16.40;99.90
2993;DHT22;1506;48.932;9.478;2023-09-19T05:39:15;16.30;99.90
2993;DHT22;1506;48.932;9.478;2023-09-19T05:41:42;16.20;99.90
2993;DHT22;1506;48.932;9.478;2023-09-19T05:44:09;16.10;99.90
2993;DHT22;1506;48.932;9.478;2023-09-19T05:46:36;16.10;99.90
2993;DHT22;1506;48.932;9.478;2023-09-19T05:49:04;16.10;99.90
2993;DHT22;1506;48.932;9.478;2023-09-19T05:51:30;16.10;99.90
2993;DHT22;1506;48.932;9.478;2023-09-19T05:53:57;16.10;99.90
2993;DHT22;1506;48.932;9.478;2023-09-19T05:56:25;16.10;99.90
2993;DHT22;1506;48.932;9.478;2023-09-19T05:58:52;16.00;99.90
2993;DHT22;1506;48.932;9.478;2023-09-19T06:01:19;16.00;99.90
2993;DHT22;1506;48.932;9.478;2023-09-19T06:03:47;15.90;99.90
2993;DHT22;1506;48.932;9.478;2023-09-19T06:06:14;15.80;99.90
2993;DHT22;1506;48.932;9.478;2023-09-19T06:08:41;15.70;99.90
2993;DHT22;1506;48.932;9.478;2023-09-19T06:11:10;15.80;99.90
2993;DHT22;1506;48.932;9.478;2023-09-19T06:13:38;15.80;99.90
2993;DHT22;1506;48.932;9.478;2023-09-19T06:16:06;15.80;99.90
2993;DHT22;1506;48.932;9.478;2023-09-19T06:18:33;15.80;99.90
2993;DHT22;1506;48.932;9.478;2023-09-19T06:21:00;15.80;99.90
2993;DHT22;1506;48.932;9.478;2023-09-19T06:23:34;15.90;99.90
2993;DHT22;1506;48.932;9.478;2023-09-19T06:26:02;15.90;99.90
2993;DHT22;1506;48.932;9.478;2023-09-19T06:28:30;15.90;99.90
2993;DHT22;1506;48.932;9.478;2023-09-19T06:30:57;16.00;99.90
2993;DHT22;1506;48.932;9.478;2023-09-19T06:33:24;16.00;99.90
2993;DHT22;1506;48.932;9.478;2023-09-19T06:35:51;15.80;99.90
2993;DHT22;1506;48.932;9.478;2023-09-19T06:38:19;15.80;99.90
2993;DHT22;1506;48.932;9.478;2023-09-19T06:40:46;15.70;99.90
2993;DHT22;1506;48.932;9.478;2023-09-19T06:43:13;15.70;99.90
2993;DHT22;1506;48.932;9.478;2023-09-19T06:45:40;15.60;99.90
2993;DHT22;1506;48.932;9.478;2023-09-19T06:48:09;15.60;99.90
2993;DHT22;1506;48.932;9.478;2023-09-19T06:50:37;15.60;99.90
2993;DHT22;1506;48.932;9.478;2023-09-19T06:53:05;15.60;99.90
2993;DHT22;1506;48.932;9.478;2023-09-19T06:55:32;15.70;99.90
2993;DHT22;1506;48.932;9.478;2023-09-19T06:57:59;15.60;99.90
2993;DHT22;1506;48.932;9.478;2023-09-19T07:00:26;15.70;99.90
2993;DHT22;1506;48.932;9.478;2023-09-19T07:02:55;15.80;99.90
2993;DHT22;1506;48.932;9.478;2023-09-19T07:05:41;15.80;99.90
2993;DHT22;1506;48.932;9.478;2023-09-19T07:08:10;15.80;99.90
2993;DHT22;1506;48.932;9.478;2023-09-19T07:10:39;15.90;99.90
2993;DHT22;1506;48.932;9.478;2023-09-19T07:13:07;16.30;99.90
2993;DHT22;1506;48.932;9.478;2023-09-19T07:15:38;16.40;99.90
2993;DHT22;1506;48.932;9.478;2023-09-19T07:18:06;16.50;99.90
2993;DHT22;1506;48.932;9.478;2023-09-19T07:20:33;17.00;99.90
2993;DHT22;1506;48.932;9.478;2023-09-19T07:23:01;17.20;99.90
2993;DHT22;1506;48.932;9.478;2023-09-19T07:25:28;17.50;99.90
2993;DHT22;1506;48.932;9.478;2023-09-19T07:27:56;18.30;99.90
2993;DHT22;1506;48.932;9.478;2023-09-19T07:30:26;18.80;94.80
2993;DHT22;1506;48.932;9.478;2023-09-19T07:32:54;19.60;30.00
2993;DHT22;1506;48.932;9.478;2023-09-19T07:35:21;20.10;1.00
2993;DHT22;1506;48.932;9.478;2023-09-19T07:37:48;20.20;99.90
2993;DHT22;1506;48.932;9.478;2023-09-19T07:40:18;20.10;1.00
2993;DHT22;1506;48.932;9.478;2023-09-19T07:42:45;19.90;1.00
2993;DHT22;1506;48.932;9.478;2023-09-19T07:45:13;19.70;1.00
2993;DHT22;1506;48.932;9.478;2023-09-19T07:47:47;19.50;1.00
2993;DHT22;1506;48.932;9.478;2023-09-19T07:50:15;19.00;1.00
2993;DHT22;1506;48.932;9.478;2023-09-19T07:52:45;19.00;1.00
2993;DHT22;1506;48.932;9.478;2023-09-19T07:55:13;19.10;1.00
2993;DHT22;1506;48.932;9.478;2023-09-19T07:57:44;19.30;1.00
2993;DHT22;1506;48.932;9.478;2023-09-19T08:00:11;19.90;1.00
2993;DHT22;1506;48.932;9.478;2023-09-19T08:02:38;20.30;1.00
2993;DHT22;1506;48.932;9.478;2023-09-19T08:05:07;20.40;99.90
2993;DHT22;1506;48.932;9.478;2023-09-19T08:07:39;20.40;99.90
2993;DHT22;1506;48.932;9.478;2023-09-19T08:10:07;20.80;99.90
2993;DHT22;1506;48.932;9.478;2023-09-19T08:12:41;21.10;1.00
2993;DHT22;1506;48.932;9.478;2023-09-19T08:17:46;20.60;1.00
2993;DHT22;1506;48.932;9.478;2023-09-19T08:20:13;20.40;99.90
2993;DHT22;1506;48.932;9.478;2023-09-19T08:22:46;20.30;1.00
2993;DHT22;1506;48.932;9.478;2023-09-19T08:25:21;20.60;99.90
2993;DHT22;1506;48.932;9.478;2023-09-19T08:27:50;20.50;99.90
2993;DHT22;1506;48.932;9.478;2023-09-19T08:30:18;20.60;1.00
2993;DHT22;1506;48.932;9.478;2023-09-19T08:32:50;20.60;99.90
2993;DHT22;1506;48.932;9.478;2023-09-19T08:35:17;20.60;1.00
2993;DHT22;1506;48.932;9.478;2023-09-19T08:37:46;20.90;1.00
2993;DHT22;1506;48.932;9.478;2023-09-19T08:40:13;21.30;95.00
2993;DHT22;1506;48.932;9.478;2023-09-19T08:42:56;21.50;99.90
2993;DHT22;1506;48.932;9.478;2023-09-19T08:45:24;21.50;1.00
2993;DHT22;1506;48.932;9.478;2023-09-19T08:56:18;21.90;99.90
2993;DHT22;1506;48.932;9.478;2023-09-19T08:58:48;21.70;99.90
2993;DHT22;1506;48.932;9.478;2023-09-19T09:01:20;21.80;99.90
2993;DHT22;1506;48.932;9.478;2023-09-19T09:03:55;22.00;1.00
2993;DHT22;1506;48.932;9.478;2023-09-19T09:06:23;22.20;1.00
2993;DHT22;1506;48.932;9.478;2023-09-19T09:08:51;22.20;99.90
2993;DHT22;1506;48.932;9.478;2023-09-19T09:11:19;22.40;1.00
2993;DHT22;1506;48.932;9.478;2023-09-19T09:13:46;22.20;1.00
2993;DHT22;1506;48.932;9.478;2023-09-19T09:16:14;21.90;1.00
2993;DHT22;1506;48.932;9.478;2023-09-19T09:18:46;22.10;1.00
2993;DHT22;1506;48.932;9.478;2023-09-19T09:21:19;22.30;1.00
2993;DHT22;1506;48.932;9.478;2023-09-19T09:23:48;22.50;1.00
2993;DHT22;1506;48.932;9.478;2023-09-19T09:26:24;22.50;1.00
2993;DHT22;1506;48.932;9.478;2023-09-19T09:29:09;22.50;1.00
2993;DHT22;1506;48.932;9.478;2023-09-19T09:31:36;22.80;1.00
2993;DHT22;1506;48.932;9.478;2023-09-19T09:34:04;23.20;99.90
2993;DHT22;1506;48.932;9.478;2023-09-19T09:36:38;23.20;99.90
2993;DHT22;1506;48.932;9.478;2023-09-19T09:39:06;23.30;99.90
2993;DHT22;1506;48.932;9.478;2023-09-19T09:41:45;23.20;99.90
2993;DHT22;1506;48.932;9.478;2023-09-19T09:44:18;22.90;99.90
2993;DHT22;1506;48.932;9.478;2023-09-19T09:46:46;22.70;99.90
2993;DHT22;1506;48.932;9.478;2023-09-19T09:49:23;22.40;99.90
2993;DHT22;1506;48.932;9.478;2023-09-19T09:52:06;21.90;99.90
2993;DHT22;1506;48.932;9.478;2023-09-19T09:55:02;21.90;99.90
2993;DHT22;1506;48.932;9.478;2023-09-19T09:57:32;22.00;99.90
2993;DHT22;1506;48.932;9.478;2023-09-19T10:00:00;22.30;69.50
2993;DHT22;1506;48.932;9.478;2023-09-19T10:02:40;22.30;1.10
2993;DHT22;1506;48.932;9.478;2023-09-19T10:05:14;22.20;57.80
2993;DHT22;1506;48.932;9.478;2023-09-19T10:07:49;22.10;25.30
2993;DHT22;1506;48.932;9.478;2023-09-19T10:10:31;22.60;45.40
2993;DHT22;1506;48.932;9.478;2023-09-19T10:13:08;23.10;1.00
2993;DHT22;1506;48.932;9.478;2023-09-19T10:15:42;23.70;1.00
2993;DHT22;1506;48.932;9.478;2023-09-19T10:18:24;24.00;1.00
2993;DHT22;1506;48.932;9.478;2023-09-19T10:20:53;24.50;1.00
2993;DHT22;1506;48.932;9.478;2023-09-19T10:23:21;24.30;1.00
2993;DHT22;1506;48.932;9.478;2023-09-19T10:25:50;24.20;1.00
2993;DHT22;1506;48.932;9.478;2023-09-19T10:28:19;24.40;1.00
2993;DHT22;1506;48.932;9.478;2023-09-19T10:30:50;24.80;1.00
2993;DHT22;1506;48.932;9.478;2023-09-19T10:33:20;24.90;1.00
2993;DHT22;1506;48.932;9.478;2023-09-19T10:35:49;24.90;1.00
2993;DHT22;1506;48.932;9.478;2023-09-19T10:38:22;25.20;1.00
2993;DHT22;1506;48.932;9.478;2023-09-19T10:40:50;25.50;1.00
2993;DHT22;1506;48.932;9.478;2023-09-19T10:43:20;25.70;1.00
2993;DHT22;1506;48.932;9.478;2023-09-19T10:45:48;26.00;1.00
2993;DHT22;1506;48.932;9.478;2023-09-19T10:48:19;25.40;1.00
2993;DHT22;1506;48.932;9.478;2023-09-19T10:50:51;25.20;1.00
2993;DHT22;1506;48.932;9.478;2023-09-19T10:53:21;25.00;1.00
2993;DHT22;1506;48.932;9.478;2023-09-19T10:55:50;25.00;1.00
2993;DHT22;1506;48.932;9.478;2023-09-19T10:58:27;24.30;1.00
2993;DHT22;1506;48.932;9.478;2023-09-19T11:00:56;24.00;1.00
2993;DHT22;1506;48.932;9.478;2023-09-19T11:03:29;24.10;1.00
2993;DHT22;1506;48.932;9.478;2023-09-19T11:06:00;24.50;1.00
2993;DHT22;1506;48.932;9.478;2023-09-19T11:11:40;24.30;1.00
2993;DHT22;1506;48.932;9.478;2023-09-19T11:30:33;23.00;1.00
2993;DHT22;1506;48.932;9.478;2023-09-19T11:43:47;23.10;1.00
2993;DHT22;1506;48.932;9.478;2023-09-19T11:46:14;23.30;1.00
2993;DHT22;1506;48.932;9.478;2023-09-19T11:48:43;23.10;1.00
2993;DHT22;1506;48.932;9.478;2023-09-19T11:51:15;23.60;1.00
2993;DHT22;1506;48.932;9.478;2023-09-19T11:53:52;23.50;1.00
2993;DHT22;1506;48.932;9.478;2023-09-19T11:56:20;23.40;1.00
2993;DHT22;1506;48.932;9.478;2023-09-19T11:58:51;23.80;1.00
2993;DHT22;1506;48.932;9.478;2023-09-19T12:01:23;24.20;1.00
2993;DHT22;1506;48.932;9.478;2023-09-19T12:03:58;24.50;1.00
2993;DHT22;1506;48.932;9.478;2023-09-19T12:06:27;25.40;1.00
2993;DHT22;1506;48.932;9.478;2023-09-19T12:08:56;25.80;1.00
2993;DHT22;1506;48.932;9.478;2023-09-19T12:11:29;26.00;1.00
2993;DHT22;1506;48.932;9.478;2023-09-19T12:14:01;26.60;1.00
2993;DHT22;1506;48.932;9.478;2023-09-19T12:16:28;26.90;1.00
2993;DHT22;1506;48.932;9.478;2023-09-19T12:19:17;27.00;99.90
2993;DHT22;1506;48.932;9.478;2023-09-19T12:22:21;27.10;99.90
2993;DHT22;1506;48.932;9.478;2023-09-19T12:24:41;27.10;99.90
2993;DHT22;1506;48.932;9.478;2023-09-19T12:27:11;26.50;99.90
2993;DHT22;1506;48.932;9.478;2023-09-19T12:29:45;26.70;99.90
2993;DHT22;1506;48.932;9.478;2023-09-19T12:32:15;27.10;99.90
2993;DHT22;1506;48.932;9.478;2023-09-19T12:34:51;26.90;99.90
2993;DHT22;1506;48.932;9.478;2023-09-19T12:37:20;27.40;99.90
2993;DHT22;1506;48.932;9.478;2023-09-19T12:39:48;27.60;99.90
2993;DHT22;1506;48.932;9.478;2023-09-19T12:42:18;28.10;99.90
2993;DHT22;1506;48.932;9.478;2023-09-19T12:44:48;28.20;99.90
2993;DHT22;1506;48.932;9.478;2023-09-19T12:47:22;27.90;99.90
2993;DHT22;1506;48.932;9.478;2023-09-19T12:50:04;27.70;99.90
2993;DHT22;1506;48.932;9.478;2023-09-19T12:52:39;28.00;99.90
2993;DHT22;1506;48.932;9.478;2023-09-19T12:55:07;27.10;99.90
2993;DHT22;1506;48.932;9.478;2023-09-19T12:57:36;26.20;99.90
2993;DHT22;1506;48.932;9.478;2023-09-19T13:00:03;25.40;99.90
2993;DHT22;1506;48.932;9.478;2023-09-19T13:02:37;24.70;99.90
2993;DHT22;1506;48.932;9.478;2023-09-19T13:05:04;24.90;99.90
2993;DHT22;1506;48.932;9.478;2023-09-19T13:07:40;25.60;99.90
2993;DHT22;1506;48.932;9.478;2023-09-19T13:10:13;26.00;99.90
2993;DHT22;1506;48.932;9.478;2023-09-19T13:12:43;25.80;99.90
2993;DHT22;1506;48.932;9.478;2023-09-19T13:15:15;25.50;99.90
2993;DHT22;1506;48.932;9.478;2023-09-19T13:17:50;25.90;99.90
2993;DHT22;1506;48.932;9.478;2023-09-19T13:20:35;26.60;99.90
2993;DHT22;1506;48.932;9.478;2023-09-19T13:23:06;27.10;99.90
2993;DHT22;1506;48.932;9.478;2023-09-19T13:25:53;26.90;99.90
2993;DHT22;1506;48.932;9.478;2023-09-19T13:28:20;26.40;99.90
2993;DHT22;1506;48.932;9.478;2023-09-19T13:30:47;26.20;99.90
2993;DHT22;1506;48.932;9.478;2023-09-19T13:33:14;25.60;99.90
2993;DHT22;1506;48.932;9.478;2023-09-19T13:35:47;25.40;99.90
2993;DHT22;1506;48.932;9.478;2023-09-19T13:38:15;25.10;99.90
2993;DHT22;1506;48.932;9.478;2023-09-19T13:40:42;25.00;99.90
2993;DHT22;1506;48.932;9.478;2023-09-19T13:43:09;24.50;99.90
2993;DHT22;1506;48.932;9.478;2023-09-19T13:45:37;24.40;99.90
2993;DHT22;1506;48.932;9.478;2023-09-19T13:48:04;24.40;99.90
2993;DHT22;1506;48.932;9.478;2023-09-19T13:50:31;24.10;99.90
2993;DHT22;1506;48.932;9.478;2023-09-19T13:52:58;23.90;99.90
2993;DHT22;1506;48.932;9.478;2023-09-19T13:55:27;23.80;99.90
2993;DHT22;1506;48.932;9.478;2023-09-19T13:57:54;24.00;99.90
2993;DHT22;1506;48.932;9.478;2023-09-19T14:00:22;24.00;99.90
2993;DHT22;1506;48.932;9.478;2023-09-19T14:02:50;24.10;99.90
2993;DHT22;1506;48.932;9.478;2023-09-19T14:05:18;24.00;99.90
2993;DHT22;1506;48.932;9.478;2023-09-19T14:07:47;24.00;99.90
2993;DHT22;1506;48.932;9.478;2023-09-19T14:10:14;23.80;99.90
2993;DHT22;1506;48.932;9.478;2023-09-19T14:12:44;24.00;99.90
2993;DHT22;1506;48.932;9.478;2023-09-19T14:15:11;23.90;99.90
2993;DHT22;1506;48.932;9.478;2023-09-19T14:17:38;23.80;99.90
2993;DHT22;1506;48.932;9.478;2023-09-19T14:20:06;23.70;99.90
2993;DHT22;1506;48.932;9.478;2023-09-19T14:22:34;23.70;99.90
2993;DHT22;1506;48.932;9.478;2023-09-19T14:25:02;23.60;99.90
2993;DHT22;1506;48.932;9.478;2023-09-19T14:27:30;23.60;99.90
2993;DHT22;1506;48.932;9.478;2023-09-19T14:29:57;23.70;99.90
2993;DHT22;1506;48.932;9.478;2023-09-19T14:32:24;23.60;99.90
2993;DHT22;1506;48.932;9.478;2023-09-19T14:34:52;23.60;99.90
2993;DHT22;1506;48.932;9.478;2023-09-19T14:37:19;23.60;99.90
2993;DHT22;1506;48.932;9.478;2023-09-19T14:39:49;23.60;99.90
2993;DHT22;1506;48.932;9.478;2023-09-19T14:42:16;23.50;99.90
2993;DHT22;1506;48.932;9.478;2023-09-19T14:44:44;23.30;99.90
2993;DHT22;1506;48.932;9.478;2023-09-19T14:47:12;23.20;99.90
2993;DHT22;1506;48.932;9.478;2023-09-19T14:49:40;23.20;99.90
2993;DHT22;1506;48.932;9.478;2023-09-19T14:52:07;23.20;99.90
2993;DHT22;1506;48.932;9.478;2023-09-19T14:54:35;23.20;99.90
2993;DHT22;1506;48.932;9.478;2023-09-19T14:57:05;23.20;99.90
2993;DHT22;1506;48.932;9.478;2023-09-19T14:59:31;23.10;99.90
2993;DHT22;1506;48.932;9.478;2023-09-19T15:01:59;23.00;99.90
2993;DHT22;1506;48.932;9.478;2023-09-19T15:04:27;23.00;99.90
2993;DHT22;1506;48.932;9.478;2023-09-19T15:06:54;23.00;99.90
2993;DHT22;1506;48.932;9.478;2023-09-19T15:09:25;23.20;99.90
2993;DHT22;1506;48.932;9.478;2023-09-19T15:11:53;23.30;99.90
2993;DHT22;1506;48.932;9.478;2023-09-19T15:14:20;23.30;99.90
2993;DHT22;1506;48.932;9.478;2023-09-19T15:16:48;23.30;99.90
2993;DHT22;1506;48.932;9.478;2023-09-19T15:19:19;23.50;99.90
2993;DHT22;1506;48.932;9.478;2023-09-19T15:21:45;23.30;99.90
2993;DHT22;1506;48.932;9.478;2023-09-19T15:24:12;23.20;99.90
2993;DHT22;1506;48.932;9.478;2023-09-19T15:26:39;23.10;99.90
2993;DHT22;1506;48.932;9.478;2023-09-19T15:29:06;23.10;99.90
2993;DHT22;1506;48.932;9.478;2023-09-19T15:31:34;23.10;99.90
2993;DHT22;1506;48.932;9.478;2023-09-19T15:34:03;23.00;99.90
2993;DHT22;1506;48.932;9.478;2023-09-19T15:36:31;22.90;99.90
2993;DHT22;1506;48.932;9.478;2023-09-19T15:41:49;23.10;99.90
2993;DHT22;1506;48.932;9.478;2023-09-19T15:44:18;23.10;99.90
2993;DHT22;1506;48.932;9.478;2023-09-19T15:46:45;23.00;99.90
2993;DHT22;1506;48.932;9.478;2023-09-19T15:49:13;22.80;99.90
2993;DHT22;1506;48.932;9.478;2023-09-19T15:51:40;22.80;99.90
2993;DHT22;1506;48.932;9.478;2023-09-19T15:54:08;22.80;99.90
2993;DHT22;1506;48.932;9.478;2023-09-19T15:56:37;22.80;99.90
2993;DHT22;1506;48.932;9.478;2023-09-19T15:59:04;22.80;99.90
2993;DHT22;1506;48.932;9.478;2023-09-19T16:01:31;22.70;99.90
2993;DHT22;1506;48.932;9.478;2023-09-19T16:03:58;22.60;99.90
2993;DHT22;1506;48.932;9.478;2023-09-19T16:06:29;22.60;99.90
2993;DHT22;1506;48.932;9.478;2023-09-19T16:08:58;22.50;99.90
2993;DHT22;1506;48.932;9.478;2023-09-19T16:11:26;22.50;99.90
2993;DHT22;1506;48.932;9.478;2023-09-19T16:13:54;22.30;99.90
2993;DHT22;1506;48.932;9.478;2023-09-19T16:16:22;22.30;99.90
2993;DHT22;1506;48.932;9.478;2023-09-19T16:18:55;22.20;99.90
2993;DHT22;1506;48.932;9.478;2023-09-19T16:21:24;22.10;99.90
2993;DHT22;1506;48.932;9.478;2023-09-19T16:23:56;22.00;99.90
2993;DHT22;1506;48.932;9.478;2023-09-19T16:26:24;21.90;99.90
2993;DHT22;1506;48.932;9.478;2023-09-19T16:28:52;21.80;99.90
2993;DHT22;1506;48.932;9.478;2023-09-19T16:31:20;21.80;99.90
2993;DHT22;1506;48.932;9.478;2023-09-19T16:33:47;21.70;99.90
2993;DHT22;1506;48.932;9.478;2023-09-19T16:36:15;21.70;99.90
2993;DHT22;1506;48.932;9.478;2023-09-19T16:38:45;21.60;99.90
2993;DHT22;1506;48.932;9.478;2023-09-19T16:41:13;21.50;99.90
2993;DHT22;1506;48.932;9.478;2023-09-19T16:43:41;21.30;99.90
2993;DHT22;1506;48.932;9.478;2023-09-19T16:46:08;21.20;99.90
2993;DHT22;1506;48.932;9.478;2023-09-19T16:48:41;21.20;99.90
2993;DHT22;1506;48.932;9.478;2023-09-19T16:51:28;21.10;99.90
2993;DHT22;1506;48.932;9.478;2023-09-19T16:53:55;21.00;99.90
2993;DHT22;1506;48.932;9.478;2023-09-19T16:56:23;20.90;99.90
2993;DHT22;1506;48.932;9.478;2023-09-19T16:58:50;20.80;1.00
2993;DHT22;1506;48.932;9.478;2023-09-19T17:01:19;20.80;1.00
2993;DHT22;1506;48.932;9.478;2023-09-19T17:03:47;20.80;1.00
2993;DHT22;1506;48.932;9.478;2023-09-19T17:06:16;20.80;1.00
2993;DHT22;1506;48.932;9.478;2023-09-19T17:08:44;20.90;1.00
2993;DHT22;1506;48.932;9.478;2023-09-19T17:11:12;20.80;1.00
2993;DHT22;1506;48.932;9.478;2023-09-19T17:13:44;20.80;1.00
2993;DHT22;1506;48.932;9.478;2023-09-19T17:16:14;20.80;1.00
2993;DHT22;1506;48.932;9.478;2023-09-19T17:18:53;20.70;1.00
2993;DHT22;1506;48.932;9.478;2023-09-19T17:21:23;20.70;1.00